Terminal Aerodrome Forecast
Issued by NWS Wilmington, OH

Current Version | Previous Version | Graphics & Text | Print | Product List | Glossary On
Versions: 1 2 3 4 5 6 7 8 9 10 11 12 13 14 15 16 17 18 19 20 21
000
FTUS41 KILN 292241 AAB
TAFILN
TAF AMD
KILN 292241Z 2923/3018 29007KT P6SM BKN090
     FM300600 34006KT P6SM SCT020
     FM301400 31007KT P6SM FEW035=

USA.gov is the U.S. government's official web portal to all federal, state and local government web resources and services.